Conway, Kentucky
Current Conditions -  °F | °C
As of 4:35 PM on Thursday 18 Dec 2014 (Local Time) from KI39 Reporting Station
Overcast Overcast  
Wind Chill: 32°   Ceiling: 7000
Heat Index: 32°   Visibility: 10mi
Dew Point: 25°   Wind: 0mph
Humidity: 75%   Direction: NA
Pressure: 30.18"   Gusts: NA
Location:  37.3528°N, 84.3261°W
Report Text: KI39 182135Z AUTO 00000KT 10SM SCT020 SCT055 OVC070 00/M04 A3018 RMK AO2
Loading
Personal Weather Stations






























Interactive Weather Map New forecast layout! Learn more

10-Day Weather Forecast

Advertisements
Track Severe Weather on mobile